Terminal Aerodrome Forecast
Issued by NWS

Home | Current Version | Previous Version | Graphics & Text | Print | Product List | Glossary On
Versions: 1 2 3 4 5 6 7 8 9 10 11 12 13 14
000
FTUS43 KICT 042007 AAA
TAFHUT
TAF AMD
KHUT 042007Z 0420/0518 15013KT P6SM SCT050 BKN150
     FM050000 18007KT P6SM VCTS OVC050CB
     FM050500 15007KT P6SM VCTS SCT025 OVC050CB=

USA.gov is the U.S. government's official web portal to all federal, state and local government web resources and services.